Time;durP1;ratioP1;P1;durP2;ratioP2;P2;SDS_P1;SDS_P2;PMS_P1;PMS_P2;Temp;Humidity;BMP_temperature;BMP_pressure;BME280_temperature;BME280_humidity;BME280_pressure;Samples;Min_cycle;Max_cycle;Signal;HPM_P1;HPM_P2
2023/06/24 00:00:11;;;;;;;27.90;16.80;;;;;;;30.59;41.01;99789.33;107974;1253;60228;-65
2023/06/24 00:02:43;;;;;;;21.80;14.20;;;;;;;30.65;41.02;99787.59;107962;1254;71757;-68
2023/06/24 00:05:13;;;;;;;19.50;14.90;;;;;;;30.63;40.84;99788.61;107868;1254;70080;-67
2023/06/24 00:07:46;;;;;;;19.20;14.70;;;;;;;30.54;41.12;99791.08;107921;1255;72581;-69
2023/06/24 00:10:13;;;;;;;17.40;14.60;;;;;;;30.54;41.39;99787.48;108015;1254;60793;-69
2023/06/24 00:12:42;;;;;;;18.20;14.70;;;;;;;30.23;41.92;99786.08;107968;1252;60276;-67
2023/06/24 00:15:10;;;;;;;18.90;15.10;;;;;;;30.10;42.02;99787.34;108073;1253;71610;-69
2023/06/24 00:17:37;;;;;;;16.70;13.60;;;;;;;30.15;42.07;99789.02;107815;1254;70460;-67
2023/06/24 00:20:07;;;;;;;18.40;15.00;;;;;;;30.35;41.54;99787.64;107985;1254;72377;-68
2023/06/24 00:22:34;;;;;;;18.00;14.40;;;;;;;30.24;41.62;99783.42;108134;1252;61886;-69
2023/06/24 00:25:00;;;;;;;16.80;14.60;;;;;;;30.24;41.61;99788.67;107910;1253;60021;-68
2023/06/24 00:27:27;;;;;;;19.20;16.20;;;;;;;30.27;41.63;99788.66;107939;1254;73481;-68
2023/06/24 00:29:54;;;;;;;21.90;16.50;;;;;;;30.30;41.55;99789.38;107951;1253;70425;-69
2023/06/24 00:32:22;;;;;;;19.60;17.30;;;;;;;30.35;41.29;99785.71;108789;1253;73003;-67
2023/06/24 00:34:50;;;;;;;24.20;19.10;;;;;;;30.27;41.64;99781.38;107939;1253;61931;-68
2023/06/24 00:37:17;;;;;;;22.20;17.60;;;;;;;30.16;41.97;99772.99;107953;1253;60024;-68
2023/06/24 00:39:44;;;;;;;26.00;18.30;;;;;;;30.12;42.06;99768.73;108085;1254;73493;-67
2023/06/24 00:42:11;;;;;;;24.70;18.10;;;;;;;30.07;42.19;99768.76;107890;1253;70443;-68
2023/06/24 00:44:39;;;;;;;21.40;19.00;;;;;;;30.15;41.98;99769.90;108159;1254;72528;-67
2023/06/24 00:47:08;;;;;;;23.00;18.50;;;;;;;30.28;41.74;99769.21;107747;1254;61864;-69
2023/06/24 00:49:35;;;;;;;16.40;14.70;;;;;;;30.33;41.56;99773.75;107724;1254;60398;-69
2023/06/24 00:52:03;;;;;;;22.90;18.20;;;;;;;30.25;41.64;99768.46;108014;1254;73592;-68
2023/06/24 00:54:31;;;;;;;21.10;16.40;;;;;;;30.23;41.63;99768.18;107971;1254;70759;-69
2023/06/24 00:57:00;;;;;;;21.10;17.90;;;;;;;30.02;41.89;99768.58;108090;1253;71248;-68
2023/06/24 00:59:29;;;;;;;20.50;17.60;;;;;;;30.14;41.76;99763.73;107992;1253;61694;-67
2023/06/24 01:01:56;;;;;;;19.40;16.90;;;;;;;30.11;41.96;99756.77;108084;1252;60399;-68
2023/06/24 01:04:24;;;;;;;23.40;19.20;;;;;;;30.14;42.02;99749.70;107983;1253;75140;-68
2023/06/24 01:06:51;;;;;;;26.00;19.90;;;;;;;29.97;42.69;99744.63;107764;1253;70261;-67
2023/06/24 01:09:18;;;;;;;22.70;18.90;;;;;;;29.42;43.78;99738.86;107770;1253;72484;-68
2023/06/24 01:11:45;;;;;;;27.00;19.50;;;;;;;29.55;43.42;99734.98;108132;1254;61996;-67
2023/06/24 01:14:11;;;;;;;23.10;18.00;;;;;;;29.22;44.30;99735.59;107958;1253;60332;-67
2023/06/24 01:16:59;;;;;;;23.60;19.60;;;;;;;29.13;44.27;99742.78;107985;1256;73583;-68
2023/06/24 01:19:33;;;;;;;23.70;17.80;;;;;;;29.03;44.32;99748.13;107896;1254;69689;-67
2023/06/24 01:22:47;;;;;;;19.00;16.30;;;;;;;28.97;44.85;99756.50;107837;1253;71932;-69
2023/06/24 01:25:48;;;;;;;22.00;18.80;;;;;;;28.80;44.78;99762.12;107301;1260;61727;-68
2023/06/24 01:28:40;;;;;;;23.10;19.60;;;;;;;28.82;44.78;99755.67;108039;1252;60680;-67
2023/06/24 01:31:19;;;;;;;23.60;19.70;;;;;;;28.65;45.15;99753.83;107956;1252;73566;-66
2023/06/24 01:33:50;;;;;;;28.10;20.10;;;;;;;28.66;45.28;99753.48;108007;1254;70055;-66
2023/06/24 01:36:19;;;;;;;25.60;20.30;;;;;;;28.76;45.34;99757.14;107920;1253;73246;-68
2023/06/24 01:38:48;;;;;;;24.40;21.00;;;;;;;28.68;45.54;99760.08;107846;1253;61868;-67
2023/06/24 01:41:16;;;;;;;20.40;17.40;;;;;;;28.66;45.53;99765.80;108182;1254;59380;-67
2023/06/24 01:43:43;;;;;;;23.20;19.60;;;;;;;28.61;45.03;99772.98;107857;1252;73935;-67
2023/06/24 01:46:10;;;;;;;20.20;16.70;;;;;;;28.47;45.23;99772.64;107789;1253;70135;-69
2023/06/24 01:48:37;;;;;;;22.70;20.20;;;;;;;28.43;45.25;99771.86;107816;1252;72699;-67
2023/06/24 01:51:08;;;;;;;27.40;19.00;;;;;;;28.40;45.32;99774.71;107757;1253;61980;-69
2023/06/24 01:53:38;;;;;;;20.70;18.40;;;;;;;28.55;45.05;99783.13;107965;1254;60332;-67
2023/06/24 01:56:05;;;;;;;23.90;18.40;;;;;;;28.56;45.29;99781.90;108046;1254;73005;-67
2023/06/24 01:58:34;;;;;;;29.90;19.60;;;;;;;28.39;45.82;99784.83;107865;1254;70274;-67
2023/06/24 02:01:01;;;;;;;25.90;19.70;;;;;;;28.23;46.25;99787.77;107817;1254;72655;-67
2023/06/24 02:03:28;;;;;;;24.00;19.10;;;;;;;28.16;46.31;99787.48;107789;1254;60429;-66
2023/06/24 02:05:56;;;;;;;19.10;15.80;;;;;;;28.14;46.31;99794.77;107715;1254;60346;-67
2023/06/24 02:08:23;;;;;;;23.10;18.20;;;;;;;28.16;45.98;99796.85;108268;1253;74218;-68
2023/06/24 02:10:50;;;;;;;22.90;18.40;;;;;;;28.26;45.89;99802.07;107866;1253;70366;-69
2023/06/24 02:13:16;;;;;;;21.50;18.00;;;;;;;28.29;45.91;99804.79;107811;1254;60280;-67
2023/06/24 02:15:44;;;;;;;23.60;19.00;;;;;;;28.16;46.28;99803.35;107965;1254;62511;-67
2023/06/24 02:18:13;;;;;;;24.10;19.30;;;;;;;28.22;46.15;99803.79;107851;1258;60523;-65
2023/06/24 02:20:40;;;;;;;25.40;20.30;;;;;;;28.20;46.30;99808.50;107672;1254;73840;-68
2023/06/24 02:23:07;;;;;;;26.30;19.80;;;;;;;28.17;46.47;99809.70;107913;1253;70346;-67
2023/06/24 02:25:34;;;;;;;31.40;20.40;;;;;;;28.16;46.59;99811.20;107941;1254;72780;-66
2023/06/24 02:28:02;;;;;;;25.90;19.10;;;;;;;28.00;47.05;99808.31;108075;1254;61978;-66
2023/06/24 02:30:29;;;;;;;21.30;17.00;;;;;;;28.06;46.79;99810.55;107609;1253;60381;-68
2023/06/24 02:32:56;;;;;;;25.50;19.50;;;;;;;28.06;46.89;99811.59;107695;1254;73841;-65
2023/06/24 02:35:23;;;;;;;24.40;19.10;;;;;;;28.15;46.88;99812.11;107821;1256;70815;-67
2023/06/24 02:37:51;;;;;;;21.50;18.10;;;;;;;28.20;46.92;99809.71;107809;1254;72704;-67
2023/06/24 02:40:17;;;;;;;25.30;18.60;;;;;;;28.33;46.68;99813.87;107991;1253;59176;-66
2023/06/24 02:42:44;;;;;;;24.00;18.50;;;;;;;28.36;46.68;99811.17;107919;1254;60377;-68
2023/06/24 02:45:11;;;;;;;18.30;16.20;;;;;;;28.41;46.69;99813.44;108001;1254;60205;-67
2023/06/24 02:47:41;;;;;;;22.50;17.50;;;;;;;28.49;46.58;99810.80;107919;1258;70308;-68
2023/06/24 02:50:08;;;;;;;24.20;17.20;;;;;;;28.65;46.51;99809.35;108043;1256;73226;-67
2023/06/24 02:52:37;;;;;;;23.10;18.50;;;;;;;28.96;46.19;99813.52;107820;1254;61771;-66
2023/06/24 02:55:05;;;;;;;21.00;17.90;;;;;;;29.29;45.36;99814.41;108126;1253;60357;-66
2023/06/24 02:57:58;;;;;;;20.90;16.50;;;;;;;29.33;45.27;99814.17;108127;1254;73806;-67
2023/06/24 03:00:25;;;;;;;20.80;18.30;;;;;;;29.50;45.13;99811.70;107990;1254;60539;-66
2023/06/24 03:03:18;;;;;;;20.70;17.90;;;;;;;29.64;44.76;99808.05;108084;1253;72646;-67
2023/06/24 03:05:53;;;;;;;20.10;17.10;;;;;;;29.87;44.38;99812.60;107949;1252;61809;-67
2023/06/24 03:08:20;;;;;;;21.50;18.80;;;;;;;29.84;44.08;99815.61;108117;1256;60395;-67
2023/06/24 03:10:51;;;;;;;21.30;17.50;;;;;;;29.75;44.29;99817.74;108088;1254;74032;-69
2023/06/24 03:13:20;;;;;;;21.40;17.70;;;;;;;29.86;44.02;99819.64;108199;1255;69198;-67
2023/06/24 03:15:52;;;;;;;26.20;19.90;;;;;;;29.86;43.70;99824.73;108144;1256;72646;-68
2023/06/24 03:18:19;;;;;;;18.50;16.60;;;;;;;30.05;43.76;99826.30;108062;1253;61974;-68
2023/06/24 03:20:47;;;;;;;24.30;20.40;;;;;;;30.22;43.56;99827.64;108207;1254;60309;-67
2023/06/24 03:23:17;;;;;;;23.80;19.10;;;;;;;30.41;43.35;99825.35;108169;1254;73713;-66
2023/06/24 03:25:43;;;;;;;21.80;18.70;;;;;;;30.49;43.32;99822.42;108045;1254;69616;-69
2023/06/24 03:28:10;;;;;;;22.20;18.20;;;;;;;30.53;43.08;99825.56;108130;1254;73173;-67
2023/06/24 03:30:43;;;;;;;23.30;17.70;;;;;;;30.70;42.94;99828.94;108136;1254;61860;-67
2023/06/24 03:33:16;;;;;;;22.00;19.20;;;;;;;30.88;42.54;99830.77;107958;1252;60380;-66
2023/06/24 03:35:43;;;;;;;22.10;18.10;;;;;;;30.99;42.00;99832.44;108182;1252;73870;-67
2023/06/24 03:38:12;;;;;;;20.70;17.40;;;;;;;31.10;42.06;99831.35;108243;1254;69675;-67
2023/06/24 03:40:39;;;;;;;22.10;18.60;;;;;;;31.07;42.31;99825.67;108034;1253;72942;-67
2023/06/24 03:43:05;;;;;;;26.70;19.50;;;;;;;31.16;42.15;99823.73;107963;1254;60837;-68
2023/06/24 03:45:33;;;;;;;22.90;17.30;;;;;;;31.05;42.53;99817.30;108157;1253;60281;-68
2023/06/24 03:48:01;;;;;;;24.20;18.50;;;;;;;31.08;42.45;99812.60;108500;1253;73701;-68
2023/06/24 03:50:29;;;;;;;24.00;19.50;;;;;;;31.21;42.58;99809.29;108096;1254;70263;-66
2023/06/24 03:52:56;;;;;;;20.50;18.30;;;;;;;31.36;42.49;99808.52;108073;1253;73248;-66
2023/06/24 03:55:22;;;;;;;22.00;18.60;;;;;;;31.52;41.96;99811.10;108008;1253;61658;-68
2023/06/24 03:57:49;;;;;;;21.60;17.00;;;;;;;31.54;41.87;99806.46;107898;1257;60386;-67
2023/06/24 04:00:20;;;;;;;21.50;17.20;;;;;;;31.72;41.60;99807.19;108003;1253;74426;-67
2023/06/24 04:02:47;;;;;;;21.70;16.40;;;;;;;32.08;40.95;99797.41;108103;1254;68807;-67
2023/06/24 04:05:14;;;;;;;17.40;15.50;;;;;;;32.54;40.05;99797.23;107973;1253;72429;-67
2023/06/24 04:07:46;;;;;;;20.60;17.50;;;;;;;32.80;39.49;99791.14;108070;1252;61797;-67
2023/06/24 04:10:14;;;;;;;26.00;17.10;;;;;;;32.94;39.42;99785.59;108127;1254;60324;-67
2023/06/24 04:12:40;;;;;;;20.60;17.30;;;;;;;33.24;38.88;99784.73;108161;1253;60286;-67
2023/06/24 04:15:08;;;;;;;19.60;16.80;;;;;;;33.68;38.04;99787.73;108123;1253;61406;-68
2023/06/24 04:17:34;;;;;;;19.10;15.20;;;;;;;34.03;37.53;99792.46;107956;1257;72452;-68
2023/06/24 04:20:04;;;;;;;18.90;16.10;;;;;;;34.23;37.40;99801.27;108152;1252;60401;-66
2023/06/24 04:22:30;;;;;;;19.80;16.20;;;;;;;34.59;36.88;99810.13;107993;1254;60408;-69
2023/06/24 04:24:58;;;;;;;19.00;14.80;;;;;;;35.02;35.98;99817.25;108413;1253;65338;-69
2023/06/24 04:27:25;;;;;;;21.00;15.90;;;;;;;35.34;35.24;99815.63;108244;1254;61716;-69
2023/06/24 04:29:52;;;;;;;18.80;16.30;;;;;;;35.41;34.59;99820.05;108017;1253;62808;-69
2023/06/24 04:32:18;;;;;;;19.30;15.50;;;;;;;35.44;34.08;99815.02;108022;1253;60427;-68
2023/06/24 04:34:46;;;;;;;17.20;14.90;;;;;;;35.36;34.62;99807.39;108086;1253;59551;-69
2023/06/24 04:37:13;;;;;;;16.60;14.80;;;;;;;35.13;34.85;99811.14;107977;1254;60525;-69
2023/06/24 04:39:43;;;;;;;18.30;15.30;;;;;;;34.94;34.82;99807.94;107962;1254;61661;-68
2023/06/24 04:42:10;;;;;;;17.40;14.90;;;;;;;34.85;35.10;99805.31;108090;1253;62513;-68
2023/06/24 04:44:36;;;;;;;20.50;17.00;;;;;;;34.82;35.11;99800.67;107980;1252;60437;-68
2023/06/24 04:47:03;;;;;;;22.20;16.70;;;;;;;34.64;35.22;99799.30;108111;1253;60331;-68
2023/06/24 04:49:30;;;;;;;22.00;16.60;;;;;;;34.64;35.51;99801.10;108122;1254;73738;-68
2023/06/24 04:52:00;;;;;;;20.40;16.00;;;;;;;34.79;35.39;99803.48;108124;1254;61718;-69
2023/06/24 04:54:27;;;;;;;23.50;15.30;;;;;;;34.93;35.50;99806.94;108105;1253;64048;-66
2023/06/24 04:56:55;;;;;;;21.00;16.20;;;;;;;35.17;35.21;99811.27;108110;1253;59055;-69
2023/06/24 04:59:22;;;;;;;21.70;16.20;;;;;;;35.55;34.70;99804.80;108146;1253;59152;-68
2023/06/24 05:01:48;;;;;;;21.90;15.10;;;;;;;35.69;34.36;99804.67;108107;1253;65605;-68
2023/06/24 05:04:15;;;;;;;24.10;17.00;;;;;;;36.01;33.61;99803.00;108089;1253;60460;-69
2023/06/24 05:06:41;;;;;;;22.20;15.60;;;;;;;36.35;33.29;99801.70;108108;1254;65226;-66
2023/06/24 05:09:10;;;;;;;17.00;15.00;;;;;;;35.97;33.87;99807.95;108065;1254;60322;-69
2023/06/24 05:11:36;;;;;;;19.20;15.80;;;;;;;35.90;33.74;99814.73;108060;1253;60496;-68
2023/06/24 05:14:03;;;;;;;20.60;15.40;;;;;;;35.77;34.17;99818.27;108146;1254;65357;-68
2023/06/24 05:16:30;;;;;;;22.30;16.60;;;;;;;35.82;34.07;99818.08;108095;1253;61706;-68
2023/06/24 05:18:56;;;;;;;23.60;15.30;;;;;;;35.57;34.50;99812.62;108096;1254;60427;-67
2023/06/24 05:21:23;;;;;;;20.30;15.40;;;;;;;35.60;34.70;99815.14;108066;1254;59227;-68
2023/06/24 05:23:50;;;;;;;26.70;16.10;;;;;;;35.63;34.97;99812.92;108122;1253;59116;-68
2023/06/24 05:26:17;;;;;;;19.80;14.40;;;;;;;35.63;35.09;99810.00;108092;1254;63991;-69
2023/06/24 05:28:43;;;;;;;22.10;15.60;;;;;;;35.65;34.78;99806.61;108101;1254;60446;-67
2023/06/24 05:31:10;;;;;;;20.60;14.60;;;;;;;35.84;34.60;99802.97;108108;1253;71235;-69
2023/06/24 05:33:37;;;;;;;28.50;16.00;;;;;;;36.01;34.73;99805.59;108139;1254;60336;-70
2023/06/24 05:36:03;;;;;;;20.20;15.30;;;;;;;36.24;34.47;99800.60;108141;1253;60418;-68
2023/06/24 05:38:30;;;;;;;21.40;15.60;;;;;;;36.30;34.27;99800.22;108105;1253;65298;-69
2023/06/24 05:40:57;;;;;;;18.10;14.00;;;;;;;36.18;34.48;99800.05;108088;1253;61730;-68
2023/06/24 05:43:25;;;;;;;22.60;15.80;;;;;;;36.18;34.35;99804.70;108083;1254;64138;-66
2023/06/24 05:45:52;;;;;;;17.70;14.20;;;;;;;36.25;34.21;99802.57;108069;1253;59036;-68
2023/06/24 05:48:19;;;;;;;19.80;14.40;;;;;;;36.17;33.89;99804.24;108055;1256;59922;-68
2023/06/24 05:50:47;;;;;;;18.70;14.40;;;;;;;36.25;33.80;99805.23;108039;1256;63897;-69
2023/06/24 05:53:13;;;;;;;19.30;13.30;;;;;;;36.46;34.16;99807.79;107990;1253;61520;-68
2023/06/24 05:55:41;;;;;;;20.90;14.20;;;;;;;36.64;33.79;99807.13;108106;1253;63964;-68
2023/06/24 05:58:08;;;;;;;20.50;14.60;;;;;;;36.78;33.78;99808.41;108066;1253;60214;-68
2023/06/24 06:00:34;;;;;;;17.30;13.30;;;;;;;36.91;33.39;99810.66;107970;1253;60468;-67
2023/06/24 06:03:01;;;;;;;21.90;13.60;;;;;;;36.90;33.01;99805.45;108191;1253;65219;-69
2023/06/24 06:05:28;;;;;;;18.70;13.00;;;;;;;36.92;33.19;99809.80;108163;1253;61611;-69
2023/06/24 06:07:55;;;;;;;20.10;14.50;;;;;;;37.08;32.91;99809.81;108076;1253;63706;-69
2023/06/24 06:10:21;;;;;;;16.30;12.40;;;;;;;37.01;32.66;99810.35;108142;1253;59015;-68
2023/06/24 06:12:49;;;;;;;19.80;13.40;;;;;;;36.87;32.47;99808.92;108127;1256;59237;-69
2023/06/24 06:15:16;;;;;;;19.90;13.70;;;;;;;36.78;32.67;99808.70;108183;1253;65278;-68
2023/06/24 06:17:46;;;;;;;27.30;13.20;;;;;;;36.81;32.87;99805.15;108145;1254;61779;-70
2023/06/24 06:20:15;;;;;;;23.60;14.10;;;;;;;36.90;32.76;99804.53;108005;1253;65843;-68
2023/06/24 06:22:42;;;;;;;24.40;12.90;;;;;;;36.95;33.07;99801.86;108095;1253;60405;-69
2023/06/24 06:25:09;;;;;;;19.40;13.30;;;;;;;36.75;33.22;99799.89;107875;1254;60307;-69
2023/06/24 06:27:36;;;;;;;21.50;14.10;;;;;;;36.49;33.57;99799.77;108143;1255;65282;-68
2023/06/24 06:30:05;;;;;;;18.60;13.10;;;;;;;36.41;33.98;99801.70;107960;1254;60349;-69
2023/06/24 06:32:32;;;;;;;21.60;15.20;;;;;;;36.44;33.94;99801.50;108911;1253;63153;-67
2023/06/24 06:34:59;;;;;;;27.70;14.40;;;;;;;36.44;34.07;99798.49;108175;1254;60749;-67
2023/06/24 06:37:27;;;;;;;22.70;14.60;;;;;;;36.42;34.30;99798.32;108204;1252;60399;-69
2023/06/24 06:39:54;;;;;;;29.60;16.50;;;;;;;36.36;33.80;99794.70;108238;1254;65062;-68
2023/06/24 06:42:21;;;;;;;27.30;16.40;;;;;;;36.29;34.06;99792.32;108197;1254;60242;-67
2023/06/24 06:44:47;;;;;;;30.80;17.60;;;;;;;36.29;34.20;99792.17;108072;1253;63901;-68
2023/06/24 06:47:15;;;;;;;29.60;16.90;;;;;;;36.26;34.38;99795.43;108219;1254;60373;-67
2023/06/24 06:49:42;;;;;;;31.60;19.20;;;;;;;36.17;34.63;99796.63;108185;1252;59618;-69
2023/06/24 06:52:09;;;;;;;41.10;24.10;;;;;;;36.31;34.47;99794.67;108213;1253;63606;-69
2023/06/24 06:54:35;;;;;;;28.50;19.20;;;;;;;36.43;34.09;99794.84;108172;1254;60545;-69
2023/06/24 06:57:03;;;;;;;29.60;19.60;;;;;;;36.50;34.17;99797.59;108188;1252;60388;-69
2023/06/24 06:59:33;;;;;;;41.90;27.10;;;;;;;36.53;33.68;99796.28;108125;1254;59075;-68
2023/06/24 07:02:00;;;;;;;38.50;26.70;;;;;;;36.41;33.94;99796.80;108179;1252;60431;-69
2023/06/24 07:04:26;;;;;;;46.10;27.80;;;;;;;36.07;34.13;99796.86;108093;1254;65187;-68
2023/06/24 07:06:53;;;;;;;43.70;27.50;;;;;;;35.97;34.14;99795.55;108132;1254;61485;-70
2023/06/24 07:09:20;;;;;;;48.90;27.80;;;;;;;35.91;34.49;99795.17;108144;1253;63846;-67
2023/06/24 07:11:46;;;;;;;42.40;24.80;;;;;;;35.82;34.49;99796.06;108096;1255;60374;-68
2023/06/24 07:14:13;;;;;;;47.10;28.20;;;;;;;35.67;34.36;99797.37;108182;1252;60314;-69
2023/06/24 07:16:41;;;;;;;57.80;33.90;;;;;;;35.66;34.51;99799.15;108230;1254;65087;-68
2023/06/24 07:19:07;;;;;;;59.90;32.00;;;;;;;35.73;34.33;99798.93;108166;1254;70341;-68
2023/06/24 07:21:34;;;;;;;64.00;32.90;;;;;;;35.74;34.67;99801.96;108189;1254;63696;-68
2023/06/24 07:24:01;;;;;;;69.60;37.80;;;;;;;35.60;34.63;99802.58;108247;1255;60635;-69
2023/06/24 07:26:29;;;;;;;57.80;32.40;;;;;;;35.39;34.78;99800.07;108143;1252;60379;-69
2023/06/24 07:28:57;;;;;;;64.00;37.80;;;;;;;35.35;34.78;99801.83;108206;1254;65234;-69
2023/06/24 07:31:37;;;;;;;;;;;;;;;35.30;34.81;99803.70;108253;1253;61648;-69
2023/06/24 07:34:04;;;;;;;67.30;37.10;;;;;;;35.38;35.04;99806.39;108189;1251;64069;-67
2023/06/24 07:36:32;;;;;;;67.60;37.20;;;;;;;35.55;34.50;99814.77;108185;1252;59051;-69
2023/06/24 07:38:59;;;;;;;75.60;39.90;;;;;;;35.84;34.03;99816.67;108173;1252;60379;-67
2023/06/24 07:41:27;;;;;;;63.70;34.70;;;;;;;35.87;34.51;99821.17;108226;1256;65186;-69
2023/06/24 07:43:55;;;;;;;63.40;32.70;;;;;;;36.23;33.89;99814.65;108202;1254;60196;-70
2023/06/24 07:46:21;;;;;;;65.70;34.70;;;;;;;36.52;33.46;99813.31;108129;1254;63916;-68
2023/06/24 07:48:48;;;;;;;64.30;34.30;;;;;;;36.76;33.08;99813.09;108729;1253;59502;-69
2023/06/24 07:51:15;;;;;;;55.10;28.90;;;;;;;37.07;32.39;99818.91;109386;1253;58339;-69
2023/06/24 07:53:41;;;;;;;62.60;31.30;;;;;;;37.15;32.14;99819.31;108358;1254;64904;-70
2023/06/24 07:56:08;;;;;;;56.10;28.60;;;;;;;37.31;31.70;99824.69;108186;1254;61666;-67
2023/06/24 07:58:37;;;;;;;47.20;24.40;;;;;;;37.78;31.49;99825.44;108175;1254;64405;-70
2023/06/24 08:01:07;;;;;;;39.80;18.40;;;;;;;37.98;31.14;99831.41;108173;1253;60379;-69
2023/06/24 08:03:33;;;;;;;37.80;18.50;;;;;;;37.92;30.75;99828.27;108190;1253;61198;-69
2023/06/24 08:06:00;;;;;;;37.50;18.40;;;;;;;37.92;30.81;99827.81;108209;1255;64872;-69
2023/06/24 08:08:28;;;;;;;31.80;17.80;;;;;;;37.93;30.58;99829.22;108215;1252;61650;-69
2023/06/24 08:10:54;;;;;;;39.10;18.20;;;;;;;38.07;30.29;99830.84;108187;1254;64982;-69
2023/06/24 08:13:21;;;;;;;30.80;13.10;;;;;;;38.04;30.52;99834.97;108210;1254;60187;-70
2023/06/24 08:15:48;;;;;;;20.70;12.10;;;;;;;38.08;30.47;99839.07;108240;1254;60270;-69
2023/06/24 08:18:14;;;;;;;22.00;10.80;;;;;;;38.43;30.02;99837.36;108217;1253;60488;-68
2023/06/24 08:20:41;;;;;;;20.50;9.10;;;;;;;38.51;29.86;99840.98;108064;1254;59196;-70
2023/06/24 08:23:09;;;;;;;22.10;11.10;;;;;;;38.38;29.91;99843.15;107993;1253;64046;-69
2023/06/24 08:25:36;;;;;;;20.00;10.90;;;;;;;38.54;29.91;99845.78;109204;1254;58532;-69
2023/06/24 08:28:04;;;;;;;26.20;9.80;;;;;;;38.45;29.59;99845.00;108103;1254;59099;-70
2023/06/24 08:30:30;;;;;;;20.10;9.50;;;;;;;38.48;29.57;99844.46;108093;1254;65717;-69
2023/06/24 08:32:58;;;;;;;17.80;9.60;;;;;;;38.48;29.98;99847.96;108165;1255;61767;-71
2023/06/24 08:35:24;;;;;;;18.10;9.70;;;;;;;38.45;29.84;99847.19;108198;1254;64009;-69
2023/06/24 08:37:51;;;;;;;23.10;11.80;;;;;;;38.24;30.26;99849.76;108193;1254;60252;-69
2023/06/24 08:40:18;;;;;;;25.80;14.70;;;;;;;37.98;30.75;99851.14;108163;1251;60313;-70
2023/06/24 08:42:46;;;;;;;31.40;15.80;;;;;;;37.90;30.73;99852.20;108334;1253;65196;-68
2023/06/24 08:45:12;;;;;;;30.50;17.20;;;;;;;38.11;30.80;99849.02;108197;1254;61638;-68
2023/06/24 08:47:41;;;;;;;29.20;15.70;;;;;;;38.26;30.52;99851.39;108160;1253;63991;-69
2023/06/24 08:50:11;;;;;;;33.50;17.30;;;;;;;38.35;30.74;99851.23;108043;1252;60173;-69
2023/06/24 08:55:59;;;;;;;18.10;9.30;;;;;;;36.02;33.28;99844.66;104795;1290;601076;-68
2023/06/24 08:58:29;;;;;;;21.90;10.50;;;;;;;37.54;31.33;99847.67;107401;1266;59472;-69
2023/06/24 09:00:56;;;;;;;20.30;10.30;;;;;;;37.73;31.24;99847.09;107480;1263;59116;-70
2023/06/24 09:03:22;;;;;;;23.00;10.10;;;;;;;37.72;31.12;99847.45;107422;1262;63377;-69
2023/06/24 09:05:49;;;;;;;20.00;10.40;;;;;;;37.95;31.15;99847.13;108779;1263;62501;-69
2023/06/24 09:08:16;;;;;;;19.50;10.70;;;;;;;37.93;31.13;99845.00;107554;1261;203020;-69
2023/06/24 09:10:45;;;;;;;17.50;10.30;;;;;;;37.60;31.86;99846.75;107553;1262;59003;-68
2023/06/24 09:13:12;;;;;;;18.70;10.00;;;;;;;37.42;32.39;99849.11;107510;1261;59263;-68
2023/06/24 09:15:39;;;;;;;20.90;9.90;;;;;;;37.43;32.20;99849.56;107586;1261;62085;-67
2023/06/24 09:18:06;;;;;;;20.10;9.80;;;;;;;37.51;32.49;99848.87;107673;1260;60600;-69
2023/06/24 09:20:39;;;;;;;16.70;9.80;;;;;;;37.60;32.49;99848.11;108142;1254;63847;-69
2023/06/24 09:23:06;;;;;;;18.40;10.10;;;;;;;37.39;32.55;99849.53;108345;1256;59710;-69
2023/06/24 09:25:32;;;;;;;19.00;9.00;;;;;;;37.27;33.23;99851.61;108253;1253;59494;-69
2023/06/24 09:28:01;;;;;;;19.70;8.60;;;;;;;37.26;33.47;99854.05;108279;1251;64417;-69
2023/06/24 09:30:28;;;;;;;13.60;8.30;;;;;;;37.09;33.33;99855.14;108295;1251;61686;-69
2023/06/24 09:32:54;;;;;;;18.10;7.90;;;;;;;37.15;33.45;99856.21;108236;1256;59274;-68
2023/06/24 09:35:25;;;;;;;11.60;6.90;;;;;;;37.16;33.13;99856.73;108259;1255;59497;-69
2023/06/24 09:37:56;;;;;;;15.40;7.30;;;;;;;37.05;33.35;99852.96;108239;1251;59526;-69
2023/06/24 09:40:23;;;;;;;16.40;7.80;;;;;;;37.17;33.02;99858.02;108292;1251;64238;-69
2023/06/24 09:42:54;;;;;;;15.10;6.90;;;;;;;37.26;32.97;99861.02;108236;1255;62073;-69
2023/06/24 09:45:27;;;;;;;19.40;8.20;;;;;;;37.30;33.20;99857.55;108230;1256;62640;-69
2023/06/24 09:47:54;;;;;;;15.30;7.50;;;;;;;37.39;32.95;99857.61;108157;1256;59539;-68
2023/06/24 09:50:22;;;;;;;15.50;7.10;;;;;;;37.37;33.25;99856.46;108146;1254;59676;-69
2023/06/24 09:52:49;;;;;;;16.40;6.70;;;;;;;37.25;33.58;99856.89;108161;1254;64417;-68
2023/06/24 09:55:17;;;;;;;15.70;7.20;;;;;;;37.29;33.14;99858.43;108237;1251;61501;-71
2023/06/24 09:57:45;;;;;;;15.20;7.70;;;;;;;37.39;33.50;99856.72;108263;1257;63924;-69
2023/06/24 10:00:15;;;;;;;22.70;6.70;;;;;;;37.76;32.81;99857.98;108247;1254;59619;-69
2023/06/24 10:02:42;;;;;;;15.40;6.90;;;;;;;38.04;32.56;99853.71;108216;1254;59557;-69
2023/06/24 10:05:12;;;;;;;22.80;7.00;;;;;;;38.22;32.51;99856.22;108130;1254;71475;-70
2023/06/24 10:07:39;;;;;;;17.10;7.00;;;;;;;38.31;31.98;99851.48;108194;1255;60363;-69
2023/06/24 10:10:06;;;;;;;16.30;7.90;;;;;;;38.43;31.97;99849.52;108200;1257;64049;-68
2023/06/24 10:12:36;;;;;;;17.80;6.80;;;;;;;38.54;31.86;99845.29;108216;1251;59458;-70
2023/06/24 10:15:03;;;;;;;19.90;6.30;;;;;;;38.44;32.00;99847.27;108149;1253;59590;-68
2023/06/24 10:17:31;;;;;;;18.50;7.10;;;;;;;38.34;32.41;99835.92;108193;1254;64359;-68
2023/06/24 10:19:57;;;;;;;17.10;6.60;;;;;;;38.48;32.15;99833.45;108118;1254;61466;-69
2023/06/24 10:22:25;;;;;;;13.50;6.50;;;;;;;38.52;32.26;99830.28;108237;1255;64022;-67
2023/06/24 10:24:52;;;;;;;16.70;6.50;;;;;;;38.65;31.87;99832.44;108156;1255;59531;-68
2023/06/24 10:27:24;;;;;;;19.10;6.90;;;;;;;38.61;31.40;99833.25;108156;1255;59554;-67
2023/06/24 10:29:55;;;;;;;14.80;6.90;;;;;;;38.63;31.58;99830.24;108002;1259;64710;-69
2023/06/24 10:32:22;;;;;;;21.10;6.60;;;;;;;38.71;31.39;99823.72;108134;1253;60588;-68
2023/06/24 10:34:56;;;;;;;15.10;6.10;;;;;;;38.60;31.89;99823.15;108167;1254;63778;-69
2023/06/24 10:37:26;;;;;;;11.60;5.90;;;;;;;38.75;31.81;99822.03;108197;1256;59839;-70
2023/06/24 10:39:57;;;;;;;17.40;6.30;;;;;;;39.04;31.32;99823.29;108165;1256;59678;-70
2023/06/24 10:42:26;;;;;;;12.70;6.60;;;;;;;39.55;30.92;99829.98;108133;1256;63256;-71
2023/06/24 10:44:57;;;;;;;18.10;6.10;;;;;;;40.23;30.09;99825.33;108144;1254;61436;-70
2023/06/24 10:47:23;;;;;;;17.80;6.30;;;;;;;40.83;28.96;99819.85;108116;1254;64321;-70
2023/06/24 10:49:50;;;;;;;12.90;6.60;;;;;;;41.28;27.96;99819.63;108209;1254;59058;-69
2023/06/24 10:52:24;;;;;;;11.40;5.80;;;;;;;41.64;26.68;99818.90;108292;1254;59656;-69
2023/06/24 10:54:52;;;;;;;15.40;5.50;;;;;;;41.79;25.75;99816.54;108206;1253;65828;-70
2023/06/24 10:57:23;;;;;;;14.90;6.00;;;;;;;41.61;26.19;99814.08;108264;1254;61386;-69
2023/06/24 10:59:50;;;;;;;12.10;5.30;;;;;;;41.59;26.32;99817.95;108209;1254;63726;-68
2023/06/24 11:02:17;;;;;;;10.70;5.70;;;;;;;41.68;26.58;99814.17;108156;1256;59516;-69
2023/06/24 11:04:45;;;;;;;19.70;6.80;;;;;;;41.72;26.55;99810.77;108339;1254;59605;-72
2023/06/24 11:07:14;;;;;;;15.00;5.50;;;;;;;41.58;26.33;99805.50;108365;1256;64193;-70
2023/06/24 11:09:42;;;;;;;15.80;6.90;;;;;;;41.48;27.06;99804.77;108149;1256;61669;-69
2023/06/24 11:12:10;;;;;;;14.50;5.60;;;;;;;41.63;26.51;99804.40;108159;1251;63916;-70
2023/06/24 11:14:40;;;;;;;12.10;5.30;;;;;;;41.73;26.38;99799.16;108197;1253;59388;-68
2023/06/24 11:17:06;;;;;;;12.70;5.50;;;;;;;41.96;26.44;99798.13;108203;1256;59714;-69
2023/06/24 11:19:34;;;;;;;15.00;5.60;;;;;;;42.02;26.30;99800.92;108214;1254;64304;-69